Alloy, WV

10:29 PM EDT on May 28, 2015 (GMT -0400)
KWVGLENF2 | | Change Station
CLOSE
Current Station
Personal Weather Station
Location: Glen Ferris, WV
Elevation: 676 ft
Nearby Weather Stations

Elev 676 ft 38.15 °N, 81.22 °W | Updated 12 minutes ago

Partly Cloudy
Partly Cloudy
69.6 °F
Feels Like 69.6 °F
N
0.0
Wind Variable Wind from WSW
Gusts 1.0 mph

Today
High -- | Low -- °F
--% Chance of Precip.
Yesterday
High -- | Low -- °F
Precip. -- in
6:05 AM 8:39 PM
Waxing Gibbous, 80% visible
Pressure 30.17 in
Visibility 10.0 miles
Clouds Few 12000 ft
Dew Point 65 °F
Humidity 85%
Rainfall 0.00 in
Snow Depth Not available.
UV 0 out of 12
Pollen 6.90 out of 12
Air Quality Not available.
Flu Activity Sporadic
METAR KCRW 290154Z 00000KT 10SM FEW120 22/19 A3019 RMK AO2 SLP215 T02170189 $

More Conditions Fewer Conditions

Pressure 30.17 in
Visibility 10.0 miles
Clouds Few 12000 ft
Dew Point 65 °F
Humidity 85%
Rainfall 0.00 in
Snow Depth Not available.
UV 0 out of 12
Pollen 6.90 out of 12
Air Quality Not available.
Flu Activity Sporadic
METAR KCRW 290154Z 00000KT 10SM FEW120 22/19 A3019 RMK AO2 SLP215 T02170189 $

More Conditions Fewer Conditions

10-Day Weather Forecast

Almanac

Astronomy

May. 28, 2015 Rise Set
Actual Time
Civil Twilight
Nautical Twilight
Astronomical Twilight
Moon
Length of Visible Light
Length of Day
Tomorrow will be .
, % of the Moon is Illuminated

Today's Extremes

State Highs State Lows

Community

WunderPhotos

Upload Photos

1,825,137 photos uploaded!

WunderBlogs® & News

Nearby

Air Quality

  Air Quality AQ Index Pollutant
Not available.

Snow Depth

Station Depth Elevation

Earthquake Activity

City Distance Mag. Time & Date
Minimum magnitude displayed is 2.5.

Coastal Water Temperatures

Place Temperature

Stations

Nearby Weather Stations

Station Location Temp. Windchill Dew Point Humidity Wind Precip. Elev Updated Type